Time;durP1;ratioP1;P1;durP2;ratioP2;P2;SDS_P1;SDS_P2;PMS_P1;PMS_P2;Temp;Humidity;BMP_temperature;BMP_pressure;BME280_temperature;BME280_humidity;BME280_pressure;Samples;Min_cycle;Max_cycle;Signal;HPM_P1;HPM_P2
2022/05/18 00:01:52;;;;;;;7.80;3.70;;;17.80;99.90;;;;;;5038888;28;20218;-82
2022/05/18 00:04:17;;;;;;;4.70;2.83;;;17.80;99.90;;;;;;5054848;28;20722;-81
2022/05/18 00:06:43;;;;;;;4.13;3.50;;;17.80;99.90;;;;;;5072641;28;20426;-82
2022/05/18 00:09:08;;;;;;;8.33;3.70;;;17.70;99.90;;;;;;5054533;28;20975;-81
2022/05/18 00:11:34;;;;;;;3.60;3.10;;;17.50;99.90;;;;;;5072552;28;20186;-82
2022/05/18 00:14:00;;;;;;;4.60;3.67;;;17.30;99.90;;;;;;5021154;28;20273;-82
2022/05/18 00:16:26;;;;;;;4.83;4.00;;;17.20;99.90;;;;;;5072788;28;20274;-82
2022/05/18 00:18:53;;;;;;;7.90;3.50;;;17.20;99.90;;;;;;5054721;28;20196;-82
2022/05/18 00:21:18;;;;;;;4.73;4.03;;;17.10;99.90;;;;;;5054543;28;20415;-81
2022/05/18 00:23:45;;;;;;;8.70;4.10;;;17.10;99.90;;;;;;5037347;28;20786;-82
2022/05/18 00:26:10;;;;;;;4.30;3.90;;;17.00;99.90;;;;;;5053826;28;20217;-81
2022/05/18 00:28:36;;;;;;;8.13;4.30;;;16.90;99.90;;;;;;5071989;28;20476;-82
2022/05/18 00:31:03;;;;;;;6.57;3.70;;;17.00;99.90;;;;;;5072054;28;20198;-82
2022/05/18 00:33:29;;;;;;;7.30;3.70;;;17.10;99.90;;;;;;5071785;28;20261;-81
2022/05/18 00:35:57;;;;;;;4.80;4.33;;;17.10;99.90;;;;;;5071861;28;20912;-82
2022/05/18 00:38:23;;;;;;;8.50;4.17;;;17.10;99.90;;;;;;5054002;28;20427;-81
2022/05/18 00:40:50;;;;;;;4.60;3.80;;;17.10;99.90;;;;;;5071731;28;20432;-81
2022/05/18 00:43:29;;;;;;;7.23;4.40;;;17.20;99.90;;;;;;5036790;28;20709;-82
2022/05/18 00:45:55;;;;;;;16.23;4.40;;;17.20;99.90;;;;;;5072070;28;20405;-82
2022/05/18 00:48:21;;;;;;;6.27;4.27;;;17.30;99.90;;;;;;5053951;28;20435;-81
2022/05/18 00:50:47;;;;;;;7.30;4.17;;;17.30;99.90;;;;;;5053884;28;20437;-81
2022/05/18 00:53:31;;;;;;;4.93;3.90;;;17.30;99.90;;;;;;5071820;28;20254;-81
2022/05/18 00:56:03;;;;;;;6.33;4.30;;;17.30;99.90;;;;;;5071856;28;20410;-81
2022/05/18 00:58:43;;;;;;;5.47;3.23;;;17.30;99.90;;;;;;5071767;28;20412;-81
2022/05/18 01:01:10;;;;;;;10.00;4.10;;;17.40;99.90;;;;;;5072450;28;20510;-81
2022/05/18 01:03:39;;;;;;;5.93;3.60;;;17.40;99.90;;;;;;5071758;28;20452;-81
2022/05/18 01:06:05;;;;;;;5.43;4.30;;;17.40;99.90;;;;;;5072402;28;20510;-81
2022/05/18 01:08:40;;;;;;;7.77;3.63;;;17.30;99.90;;;;;;5072234;28;20514;-81
2022/05/18 01:11:06;;;;;;;5.57;3.97;;;17.30;99.90;;;;;;5072373;28;20173;-82
2022/05/18 01:13:32;;;;;;;6.20;3.90;;;17.30;99.90;;;;;;5037231;28;20575;-81
2022/05/18 01:15:58;;;;;;;3.70;3.17;;;17.30;99.90;;;;;;5053965;28;20210;-81
2022/05/18 01:18:24;;;;;;;4.80;3.23;;;17.30;99.90;;;;;;5072080;28;20189;-81
2022/05/18 01:20:51;;;;;;;7.00;4.00;;;17.30;99.90;;;;;;5071568;28;20435;-82
2022/05/18 01:23:26;;;;;;;5.57;4.00;;;17.30;99.90;;;;;;5053325;28;20540;-81
2022/05/18 01:26:16;;;;;;;7.63;3.60;;;17.20;99.90;;;;;;5071291;28;20462;-81
2022/05/18 01:28:53;;;;;;;4.90;3.70;;;16.90;99.90;;;;;;5052962;28;20922;-81
2022/05/18 01:31:39;;;;;;;4.77;3.70;;;16.90;99.90;;;;;;5036157;28;21046;-81
2022/05/18 01:34:05;;;;;;;4.03;3.63;;;16.60;99.90;;;;;;5070711;28;20473;-81
2022/05/18 01:36:30;;;;;;;6.27;4.00;;;16.30;99.90;;;;;;5052919;28;20910;-81
2022/05/18 01:38:56;;;;;;;5.13;3.50;;;16.10;99.90;;;;;;5070937;28;20270;-81
2022/05/18 01:41:22;;;;;;;7.33;3.47;;;16.20;99.90;;;;;;5052480;28;20638;-81
2022/05/18 01:43:52;;;;;;;4.90;3.57;;;16.20;99.90;;;;;;5052336;28;20208;-81
2022/05/18 01:46:19;;;;;;;7.67;3.60;;;16.20;99.90;;;;;;5019887;28;20432;-81
2022/05/18 01:48:48;;;;;;;5.13;3.80;;;16.30;99.90;;;;;;5052464;28;20423;-81
2022/05/18 01:51:26;;;;;;;3.97;3.60;;;16.40;99.90;;;;;;5070049;28;20567;-81
2022/05/18 01:53:51;;;;;;;5.80;3.80;;;16.50;99.90;;;;;;5070102;28;20468;-81
2022/05/18 01:56:17;;;;;;;5.97;3.70;;;16.50;99.90;;;;;;5069967;28;20420;-81
2022/05/18 01:58:42;;;;;;;10.10;4.03;;;16.60;99.90;;;;;;5035436;28;20189;-81
2022/05/18 02:01:08;;;;;;;7.53;4.07;;;16.60;99.90;;;;;;5051451;28;20183;-81
2022/05/18 02:03:34;;;;;;;5.47;3.50;;;16.50;99.90;;;;;;5051101;28;20290;-81
2022/05/18 02:05:59;;;;;;;9.70;3.93;;;16.50;99.90;;;;;;5051338;28;20185;-82
2022/05/18 02:08:25;;;;;;;5.97;4.03;;;16.50;99.90;;;;;;5051288;28;20196;-81
2022/05/18 02:10:51;;;;;;;4.27;3.30;;;16.50;99.90;;;;;;5051271;28;20187;-81
2022/05/18 02:13:18;;;;;;;6.00;4.10;;;16.60;99.90;;;;;;5050766;28;20605;-81
2022/05/18 02:15:43;;;;;;;5.10;2.80;;;16.50;99.90;;;;;;5051005;28;20419;-81
2022/05/18 02:18:10;;;;;;;4.70;3.00;;;16.50;99.90;;;;;;5050478;28;20423;-81
2022/05/18 02:20:36;;;;;;;8.87;3.57;;;16.50;99.90;;;;;;5050553;28;20178;-81
2022/05/18 02:23:02;;;;;;;5.23;3.40;;;16.50;99.90;;;;;;5068763;28;20440;-81
2022/05/18 02:25:28;;;;;;;7.00;3.83;;;16.60;99.90;;;;;;5069781;28;20933;-81
2022/05/18 02:27:55;;;;;;;4.40;2.63;;;16.50;99.90;;;;;;5072020;28;20625;-81
2022/05/18 02:30:21;;;;;;;4.67;3.30;;;16.50;99.90;;;;;;5071931;28;20203;-81
2022/05/18 02:32:46;;;;;;;9.20;3.33;;;16.50;99.90;;;;;;5071745;28;20442;-81
2022/05/18 02:35:12;;;;;;;7.93;3.60;;;16.40;99.90;;;;;;5053706;28;20464;-82
2022/05/18 02:37:38;;;;;;;2.70;2.50;;;16.40;99.90;;;;;;5071030;28;20228;-81
2022/05/18 02:40:07;;;;;;;5.50;3.40;;;16.40;99.90;;;;;;5071387;28;20205;-81
2022/05/18 02:42:32;;;;;;;7.87;3.47;;;16.40;99.90;;;;;;5071324;28;20439;-81
2022/05/18 02:44:58;;;;;;;8.10;3.30;;;16.40;99.90;;;;;;5036907;28;20774;-81
2022/05/18 02:47:24;;;;;;;6.40;2.93;;;16.40;99.90;;;;;;5020051;28;20188;-81
2022/05/18 02:49:51;;;;;;;4.90;3.60;;;16.40;99.90;;;;;;5052916;28;20193;-81
2022/05/18 02:52:17;;;;;;;5.90;3.80;;;16.30;99.90;;;;;;5053189;28;20214;-81
2022/05/18 02:57:29;;;;;;;3.77;2.77;;;16.40;99.90;;;;;;5030040;28;20431;-81
2022/05/18 02:59:54;;;;;;;6.90;3.50;;;16.50;99.90;;;;;;5036520;28;20514;-81
2022/05/18 03:02:20;;;;;;;5.83;3.47;;;16.50;99.90;;;;;;5071226;28;20203;-81
2022/05/18 03:04:46;;;;;;;6.80;3.33;;;16.50;99.90;;;;;;5054858;28;20251;-81
2022/05/18 03:07:11;;;;;;;7.73;3.70;;;16.50;99.90;;;;;;5074928;28;20244;-81
2022/05/18 03:09:37;;;;;;;3.30;2.70;;;16.50;99.90;;;;;;5074668;28;20434;-81
2022/05/18 03:12:04;;;;;;;7.57;3.37;;;16.30;99.90;;;;;;5056249;28;20208;-81
2022/05/18 03:14:30;;;;;;;6.53;2.63;;;16.20;99.90;;;;;;5056439;28;20527;-81
2022/05/18 03:16:55;;;;;;;6.10;3.40;;;16.10;99.90;;;;;;5055971;28;20418;-81
2022/05/18 03:19:23;;;;;;;3.70;3.30;;;16.10;99.90;;;;;;5056374;28;20431;-81
2022/05/18 03:24:33;;;;;;;9.77;3.97;;;15.80;99.90;;;;;;5074753;28;20411;-81
2022/05/18 03:26:59;;;;;;;5.50;3.70;;;15.90;99.90;;;;;;5055685;28;20428;-81
2022/05/18 03:29:25;;;;;;;5.20;3.30;;;15.90;99.90;;;;;;5056081;28;20535;-82
2022/05/18 03:31:50;;;;;;;5.37;3.53;;;15.90;99.90;;;;;;5056134;28;20211;-81
2022/05/18 03:34:16;;;;;;;8.43;3.70;;;15.80;99.90;;;;;;5074229;28;20212;-81
2022/05/18 03:36:42;;;;;;;8.23;4.00;;;15.80;99.90;;;;;;5055324;28;20218;-81
2022/05/18 03:39:08;;;;;;;5.50;3.50;;;15.70;99.90;;;;;;5055379;28;20203;-81
2022/05/18 03:41:34;;;;;;;6.33;3.30;;;15.50;99.90;;;;;;5073819;28;20989;-81
2022/05/18 03:44:04;;;;;;;8.20;3.97;;;15.50;99.90;;;;;;5073876;28;20228;-81
2022/05/18 03:46:29;;;;;;;8.20;3.93;;;15.50;99.90;;;;;;5055884;28;20939;-81
2022/05/18 03:48:55;;;;;;;4.93;3.27;;;15.50;99.90;;;;;;5073493;28;20426;-81
2022/05/18 03:51:21;;;;;;;3.20;2.90;;;15.40;99.90;;;;;;5055395;28;20241;-81
2022/05/18 03:53:47;;;;;;;6.87;4.17;;;15.40;99.90;;;;;;5073239;28;20212;-82
2022/05/18 03:56:13;;;;;;;5.60;3.67;;;15.40;99.90;;;;;;5073211;28;20184;-81
2022/05/18 03:58:39;;;;;;;6.13;3.90;;;15.30;99.90;;;;;;5055137;28;20507;-81
2022/05/18 04:01:08;;;;;;;3.43;3.13;;;15.40;99.90;;;;;;5073116;28;20447;-81
2022/05/18 04:03:39;;;;;;;4.57;3.20;;;15.50;99.90;;;;;;5054672;28;20234;-81
2022/05/18 04:06:05;;;;;;;5.20;3.60;;;15.50;99.90;;;;;;5072874;28;20439;-81
2022/05/18 04:08:31;;;;;;;4.50;3.40;;;15.50;99.90;;;;;;5037984;28;20435;-82
2022/05/18 04:10:57;;;;;;;6.40;3.53;;;15.50;99.90;;;;;;5037616;28;20432;-81
2022/05/18 04:13:27;;;;;;;4.60;3.23;;;15.50;99.90;;;;;;5037421;28;20223;-81
2022/05/18 04:15:54;;;;;;;8.13;3.43;;;15.50;99.90;;;;;;5053951;28;20427;-81
2022/05/18 04:18:22;;;;;;;6.17;3.83;;;15.60;99.90;;;;;;5037496;28;20469;-81
2022/05/18 04:20:48;;;;;;;6.20;3.47;;;15.70;99.90;;;;;;5053816;28;20422;-81
2022/05/18 04:23:13;;;;;;;3.90;3.03;;;15.70;99.90;;;;;;5071555;28;20920;-81
2022/05/18 04:25:41;;;;;;;4.00;2.83;;;15.80;99.90;;;;;;5053545;28;20434;-80
2022/05/18 04:28:07;;;;;;;5.10;2.93;;;15.80;99.90;;;;;;5036885;28;20246;-81
2022/05/18 04:30:33;;;;;;;5.20;3.03;;;15.90;99.90;;;;;;5053537;28;20794;-81
2022/05/18 04:33:00;;;;;;;7.93;3.50;;;16.00;99.90;;;;;;5071156;28;20443;-81
2022/05/18 04:35:28;;;;;;;5.73;3.20;;;16.00;99.90;;;;;;5071128;28;20474;-81
2022/05/18 04:37:54;;;;;;;5.10;2.97;;;16.00;99.90;;;;;;5052860;28;20542;-81
2022/05/18 04:40:20;;;;;;;4.13;2.97;;;16.00;99.90;;;;;;5052879;28;20518;-81
2022/05/18 04:42:46;;;;;;;3.37;2.70;;;16.10;99.90;;;;;;5070438;28;20465;-81
2022/05/18 04:45:14;;;;;;;4.17;3.43;;;16.30;99.90;;;;;;5070716;28;20180;-81
2022/05/18 04:47:40;;;;;;;9.43;4.40;;;16.40;99.90;;;;;;5052315;28;20185;-80
2022/05/18 04:50:07;;;;;;;7.13;3.00;;;16.50;99.90;;;;;;5019132;28;20445;-81
2022/05/18 04:52:33;;;;;;;3.53;3.23;;;16.50;99.90;;;;;;5070098;28;20205;-81
2022/05/18 04:54:59;;;;;;;5.67;3.20;;;16.50;99.90;;;;;;5053358;28;20527;-81
2022/05/18 04:57:24;;;;;;;4.40;3.17;;;16.60;99.90;;;;;;5037711;28;20196;-81
2022/05/18 04:59:51;;;;;;;3.27;2.90;;;16.70;99.90;;;;;;5072510;28;20176;-81
2022/05/18 05:02:17;;;;;;;3.13;2.90;;;17.00;99.90;;;;;;5054301;28;20230;-81
2022/05/18 05:04:43;;;;;;;3.87;2.87;;;17.10;99.90;;;;;;5072190;28;20949;-81
2022/05/18 05:07:09;;;;;;;4.20;3.00;;;17.30;99.90;;;;;;5053774;28;20439;-81
2022/05/18 05:09:37;;;;;;;3.50;2.73;;;17.50;99.90;;;;;;5071770;28;20437;-81
2022/05/18 05:12:03;;;;;;;9.73;3.00;;;17.70;99.90;;;;;;5072379;28;20621;-81
2022/05/18 05:14:29;;;;;;;3.77;2.97;;;17.80;99.90;;;;;;5054615;28;20582;-81
2022/05/18 05:16:54;;;;;;;8.17;3.87;;;17.90;99.90;;;;;;5054251;28;20528;-81
2022/05/18 05:19:20;;;;;;;8.77;3.97;;;17.90;99.90;;;;;;5071830;28;20173;-81
2022/05/18 05:21:46;;;;;;;6.47;4.00;;;17.80;99.90;;;;;;5041014;28;20196;-81
2022/05/18 05:24:13;;;;;;;6.33;4.23;;;17.60;99.90;;;;;;5077044;28;20727;-81
2022/05/18 05:26:41;;;;;;;5.50;4.70;;;17.50;99.90;;;;;;5072497;28;20214;-81
2022/05/18 05:29:07;;;;;;;8.23;3.83;;;17.40;99.90;;;;;;5055376;28;20423;-81
2022/05/18 05:31:32;;;;;;;4.93;4.43;;;17.30;99.90;;;;;;5055143;28;20420;-81
2022/05/18 05:33:59;;;;;;;5.13;4.63;;;17.40;99.90;;;;;;5054511;28;20556;-81
2022/05/18 05:36:25;;;;;;;5.70;4.27;;;17.40;99.90;;;;;;5072729;28;20189;-81
2022/05/18 05:38:50;;;;;;;4.67;3.90;;;17.50;99.90;;;;;;5073466;28;20928;-81
2022/05/18 05:41:17;;;;;;;5.90;4.40;;;17.50;99.90;;;;;;5054278;28;20426;-81
2022/05/18 05:43:43;;;;;;;5.40;4.20;;;17.70;99.90;;;;;;5072022;28;20204;-81
2022/05/18 05:46:13;;;;;;;6.00;4.00;;;18.00;99.90;;;;;;5053308;28;20447;-81
2022/05/18 05:48:40;;;;;;;7.20;4.20;;;18.20;99.90;;;;;;5071386;28;20174;-81
2022/05/18 05:51:11;;;;;;;4.57;4.17;;;18.40;99.90;;;;;;5071444;28;20419;-81
2022/05/18 05:53:39;;;;;;;5.50;3.30;;;18.60;99.90;;;;;;5070821;28;20541;-81
2022/05/18 05:56:06;;;;;;;6.43;3.97;;;18.80;99.90;;;;;;5052340;28;20432;-81
2022/05/18 05:58:33;;;;;;;3.70;3.00;;;19.00;99.90;;;;;;5035833;28;20436;-81
2022/05/18 06:00:59;;;;;;;4.63;3.20;;;19.30;99.90;;;;;;5052437;28;20427;-81
2022/05/18 06:03:25;;;;;;;5.33;3.10;;;19.50;99.90;;;;;;5052430;28;20435;-81
2022/05/18 06:05:52;;;;;;;6.37;2.70;;;19.70;99.90;;;;;;5035466;28;20419;-81
2022/05/18 06:08:18;;;;;;;3.53;2.80;;;19.90;99.90;;;;;;5070908;28;20425;-81
2022/05/18 06:10:43;;;;;;;3.50;3.00;;;20.10;99.90;;;;;;5070748;28;20419;-81
2022/05/18 06:13:11;;;;;;;5.70;3.10;;;20.20;99.90;;;;;;5070551;28;20482;-81
2022/05/18 06:15:37;;;;;;;3.40;3.10;;;20.30;99.90;;;;;;5052554;28;20183;-81
2022/05/18 06:18:03;;;;;;;4.80;2.83;;;20.30;99.90;;;;;;5070842;28;20414;-80
2022/05/18 06:20:29;;;;;;;5.73;3.13;;;20.50;99.90;;;;;;5052784;28;20409;-81
2022/05/18 06:22:57;;;;;;;3.80;2.87;;;20.60;99.90;;;;;;5070592;28;20547;-81
2022/05/18 06:25:23;;;;;;;6.53;3.03;;;20.70;99.90;;;;;;5070453;28;20730;-81
2022/05/18 06:27:48;;;;;;;4.33;3.10;;;20.80;99.90;;;;;;5070851;28;20426;-80
2022/05/18 06:30:14;;;;;;;6.70;3.23;;;20.80;99.90;;;;;;5053660;28;20243;-81
2022/05/18 06:32:41;;;;;;;6.07;3.10;;;21.00;99.90;;;;;;5070930;28;20207;-80
2022/05/18 06:35:07;;;;;;;3.90;2.60;;;21.00;99.90;;;;;;5070953;28;21037;-80
2022/05/18 06:37:33;;;;;;;8.33;3.33;;;21.10;99.90;;;;;;5037143;28;20425;-81
2022/05/18 06:39:59;;;;;;;2.53;2.33;;;21.20;99.90;;;;;;5075202;28;21001;-81
2022/05/18 06:42:25;;;;;;;6.93;3.00;;;21.30;99.90;;;;;;5056996;28;20469;-81
2022/05/18 06:44:50;;;;;;;4.63;3.03;;;21.40;99.90;;;;;;5057176;28;20297;-81
2022/05/18 06:47:17;;;;;;;3.50;2.70;;;21.50;99.90;;;;;;5057324;28;20544;-81
2022/05/18 06:49:43;;;;;;;4.33;3.23;;;21.60;99.90;;;;;;5075576;28;20644;-81
2022/05/18 06:52:11;;;;;;;4.30;3.20;;;21.60;99.90;;;;;;5075200;28;20493;-81
2022/05/18 06:54:37;;;;;;;4.20;2.73;;;21.60;99.90;;;;;;5056936;28;20226;-81
2022/05/18 06:57:04;;;;;;;5.20;2.80;;;21.80;99.90;;;;;;5074731;28;20482;-80
2022/05/18 06:59:30;;;;;;;8.00;2.63;;;21.90;99.90;;;;;;5075545;28;20178;-81
2022/05/18 07:01:56;;;;;;;3.43;2.57;;;21.90;99.90;;;;;;5074666;28;20434;-81
2022/05/18 07:04:22;;;;;;;5.63;2.97;;;22.00;99.90;;;;;;5056359;28;20786;-81
2022/05/18 07:06:48;;;;;;;5.70;2.70;;;22.00;99.60;;;;;;5056443;28;20186;-81
2022/05/18 07:09:16;;;;;;;6.60;2.93;;;22.10;99.90;;;;;;5056012;28;20508;-81
2022/05/18 07:11:43;;;;;;;4.90;2.83;;;22.20;99.40;;;;;;5073938;28;20199;-81
2022/05/18 07:14:09;;;;;;;7.63;2.97;;;22.20;99.90;;;;;;5056045;28;20963;-81
2022/05/18 07:16:35;;;;;;;7.53;2.93;;;22.30;99.80;;;;;;5073550;28;20441;-81
2022/05/18 07:19:01;;;;;;;4.73;2.73;;;22.30;99.70;;;;;;5055124;28;20948;-80
2022/05/18 07:21:27;;;;;;;4.03;2.70;;;22.30;99.90;;;;;;5073154;28;20656;-80
2022/05/18 07:23:53;;;;;;;4.97;2.90;;;22.30;98.50;;;;;;5073259;28;20179;-81
2022/05/18 07:26:21;;;;;;;4.27;2.80;;;22.30;99.10;;;;;;5072567;28;20427;-80
2022/05/18 07:28:47;;;;;;;9.50;3.30;;;22.30;99.90;;;;;;5053977;28;20524;-81
2022/05/18 07:31:14;;;;;;;3.30;2.70;;;22.30;99.90;;;;;;5055449;28;20881;-81
2022/05/18 07:33:39;;;;;;;3.87;2.93;;;22.40;99.20;;;;;;5074770;28;20987;-80
2022/05/18 07:36:06;;;;;;;4.83;3.97;;;22.30;98.50;;;;;;5057703;28;20430;-81
2022/05/18 07:38:32;;;;;;;5.33;3.33;;;22.30;97.80;;;;;;5057510;28;20233;-81
2022/05/18 07:40:59;;;;;;;5.00;2.90;;;22.30;98.50;;;;;;5040493;28;20422;-81
2022/05/18 07:43:25;;;;;;;4.00;2.90;;;22.30;97.70;;;;;;5057488;28;20530;-81
2022/05/18 07:45:53;;;;;;;4.40;2.90;;;22.30;98.40;;;;;;5057450;28;20421;-81
2022/05/18 07:48:20;;;;;;;3.90;3.40;;;22.30;98.10;;;;;;5075750;28;20413;-81
2022/05/18 07:50:45;;;;;;;4.57;3.07;;;22.30;98.30;;;;;;5056036;28;20424;-81
2022/05/18 07:53:11;;;;;;;4.70;3.07;;;22.30;98.50;;;;;;5074767;28;20501;-81
2022/05/18 07:55:37;;;;;;;7.13;2.70;;;22.40;98.60;;;;;;5040562;28;20192;-81
2022/05/18 07:58:09;;;;;;;4.47;3.23;;;22.40;98.30;;;;;;5056586;28;20413;-81
2022/05/18 08:00:35;;;;;;;4.10;2.63;;;22.50;97.40;;;;;;5074737;28;20159;-81
2022/05/18 08:03:02;;;;;;;5.27;3.10;;;22.60;98.50;;;;;;5056106;28;20529;-81
2022/05/18 08:05:29;;;;;;;5.63;3.23;;;22.70;98.90;;;;;;5056209;28;20188;-82
2022/05/18 08:07:54;;;;;;;7.63;3.60;;;22.80;97.40;;;;;;5074567;28;20419;-82
2022/05/18 08:15:51;;;;;;;4.80;3.00;;;23.20;99.10;;;;;;5059728;28;20468;-81
2022/05/18 08:18:18;;;;;;;2.63;2.43;;;23.40;97.20;;;;;;5040125;28;20472;-81
2022/05/18 08:20:45;;;;;;;5.80;2.93;;;23.60;97.90;;;;;;5056287;28;20448;-81
2022/05/18 08:23:12;;;;;;;6.50;3.20;;;23.80;95.80;;;;;;5056310;28;20430;-81
2022/05/18 08:25:37;;;;;;;7.80;3.50;;;23.70;93.80;;;;;;5056617;28;20414;-81
2022/05/18 08:28:04;;;;;;;3.60;2.90;;;23.80;94.80;;;;;;5056461;28;20521;-81
2022/05/18 08:30:31;;;;;;;3.40;3.10;;;23.70;93.50;;;;;;5074806;28;20263;-81
2022/05/18 08:33:01;;;;;;;7.90;3.10;;;23.90;95.10;;;;;;5056708;28;20475;-81
2022/05/18 08:35:28;;;;;;;4.43;2.43;;;24.00;93.80;;;;;;5074672;28;20463;-80
2022/05/18 08:37:55;;;;;;;9.27;3.30;;;23.90;93.00;;;;;;5074688;28;21229;-81
2022/05/18 08:40:30;;;;;;;9.30;2.60;;;24.00;93.00;;;;;;5039373;28;20438;-81
2022/05/18 08:42:57;;;;;;;2.57;2.37;;;24.20;92.60;;;;;;5055359;28;20464;-81
2022/05/18 08:45:26;;;;;;;3.10;2.80;;;24.30;90.90;;;;;;5055249;28;20496;-80
2022/05/18 08:48:10;;;;;;;4.20;2.67;;;24.30;91.20;;;;;;5073534;28;20430;-80
2022/05/18 08:50:39;;;;;;;5.07;2.70;;;24.20;88.70;;;;;;5073697;28;20806;-81
2022/05/18 08:53:24;;;;;;;3.10;2.80;;;24.50;92.00;;;;;;5072700;28;20447;-82
2022/05/18 08:55:56;;;;;;;5.93;2.90;;;24.80;90.10;;;;;;5073074;28;20508;-81
2022/05/18 08:58:34;;;;;;;3.60;2.57;;;25.00;90.10;;;;;;5073331;28;20846;-81
2022/05/18 09:01:15;;;;;;;4.17;2.70;;;25.40;91.00;;;;;;5073098;28;20420;-80
2022/05/18 09:03:45;;;;;;;5.60;3.67;;;25.70;85.50;;;;;;5072631;28;20519;-81
2022/05/18 09:06:33;;;;;;;6.30;3.03;;;25.50;82.90;;;;;;5072107;28;20431;-82
2022/05/18 09:11:52;;;;;;;2.60;2.10;;;25.60;80.80;;;;;;5072429;28;20436;-81
2022/05/18 09:14:20;;;;;;;2.30;2.10;;;25.90;77.00;;;;;;5071752;28;20499;-81
2022/05/18 09:17:17;;;;;;;2.30;2.03;;;26.10;80.60;;;;;;5053972;28;20183;-81
2022/05/18 09:19:54;;;;;;;2.90;2.07;;;26.60;79.30;;;;;;5071478;28;20412;-81
2022/05/18 09:22:45;;;;;;;8.87;3.00;;;26.90;78.90;;;;;;5071641;28;21203;-81
2022/05/18 09:25:26;;;;;;;2.87;2.33;;;26.80;76.70;;;;;;5071314;28;20421;-81
2022/05/18 09:28:15;;;;;;;2.57;2.37;;;27.00;73.10;;;;;;5070694;28;20405;-81
2022/05/18 09:31:16;;;;;;;2.50;1.97;;;27.30;73.20;;;;;;5071236;28;20416;-81
2022/05/18 09:33:58;;;;;;;4.90;2.70;;;27.60;72.90;;;;;;5071130;28;20897;-80
2022/05/18 09:36:45;;;;;;;3.00;2.23;;;27.80;72.10;;;;;;5052505;28;20496;-81
2022/05/18 09:39:21;;;;;;;3.60;2.80;;;28.00;71.00;;;;;;5052664;28;21078;-81
2022/05/18 09:41:50;;;;;;;4.80;2.30;;;28.30;69.00;;;;;;5070705;28;20438;-81
2022/05/18 09:44:37;;;;;;;4.30;2.40;;;28.40;70.30;;;;;;5070598;28;20799;-81
2022/05/18 09:47:04;;;;;;;3.53;2.10;;;28.70;71.30;;;;;;5052060;28;20460;-81
2022/05/18 09:49:36;;;;;;;2.60;2.40;;;28.90;67.80;;;;;;5052034;28;20426;-80
2022/05/18 09:52:05;;;;;;;3.73;2.30;;;29.00;68.30;;;;;;5070258;28;20490;-80
2022/05/18 09:54:33;;;;;;;2.10;1.77;;;29.10;67.10;;;;;;5069623;28;20460;-81
2022/05/18 09:57:06;;;;;;;1.97;1.60;;;29.40;65.10;;;;;;5069647;28;20421;-81
2022/05/18 09:59:38;;;;;;;4.80;2.13;;;29.40;62.50;;;;;;5051549;28;20461;-80
2022/05/18 10:07:50;;;;;;;2.73;2.50;;;29.20;62.30;;;;;;5069761;28;20400;-80
2022/05/18 10:10:27;;;;;;;2.30;1.87;;;29.20;60.20;;;;;;5069529;28;20799;-80
2022/05/18 10:12:58;;;;;;;4.40;2.30;;;29.30;61.30;;;;;;5071447;28;20447;-81
2022/05/18 10:15:45;;;;;;;2.80;2.13;;;29.30;62.50;;;;;;5072343;28;20514;-81
2022/05/18 10:18:39;;;;;;;2.00;1.90;;;29.50;66.20;;;;;;5054314;28;20405;-81
2022/05/18 10:21:10;;;;;;;3.07;1.60;;;29.50;60.40;;;;;;5071839;28;20794;-80
2022/05/18 10:23:48;;;;;;;3.87;1.53;;;29.50;58.10;;;;;;5072762;28;20429;-80
2022/05/18 10:26:39;;;;;;;2.00;1.80;;;29.80;57.20;;;;;;5072554;28;20421;-80
2022/05/18 10:29:12;;;;;;;6.63;2.50;;;29.80;58.50;;;;;;5073211;28;20428;-80
2022/05/18 10:31:42;;;;;;;2.20;1.93;;;29.80;59.10;;;;;;5071949;28;20433;-80
2022/05/18 10:34:16;;;;;;;2.70;1.80;;;30.00;58.30;;;;;;5071639;28;20472;-80
2022/05/18 10:36:46;;;;;;;2.37;1.87;;;30.00;59.70;;;;;;5054133;28;20460;-80
2022/05/18 10:39:13;;;;;;;2.97;2.23;;;30.40;58.70;;;;;;5073371;28;20423;-81
2022/05/18 10:41:45;;;;;;;6.27;2.33;;;30.40;58.10;;;;;;5072312;28;20468;-81
2022/05/18 10:44:20;;;;;;;4.10;2.10;;;30.20;57.70;;;;;;5054291;28;20505;-80
2022/05/18 10:46:48;;;;;;;2.33;2.00;;;30.20;59.40;;;;;;5073602;28;20420;-80
2022/05/18 10:49:30;;;;;;;4.63;2.00;;;30.50;59.40;;;;;;5073663;28;20505;-80
2022/05/18 10:52:12;;;;;;;3.07;2.00;;;30.40;58.30;;;;;;5071476;28;20425;-80
2022/05/18 10:54:38;;;;;;;3.17;2.23;;;30.30;57.30;;;;;;5071246;28;20464;-80
2022/05/18 10:57:10;;;;;;;3.67;1.93;;;30.50;58.50;;;;;;5071984;28;20490;-80
2022/05/18 10:59:48;;;;;;;7.83;2.13;;;30.60;58.00;;;;;;5052920;28;20486;-79
2022/05/18 11:02:29;;;;;;;2.83;2.23;;;30.70;56.90;;;;;;5070445;28;21322;-79
2022/05/18 11:05:11;;;;;;;3.03;1.70;;;31.00;53.90;;;;;;5069807;28;20504;-79
2022/05/18 11:07:36;;;;;;;2.00;1.40;;;31.10;54.50;;;;;;5069684;28;20489;-80
2022/05/18 11:10:03;;;;;;;3.93;1.73;;;30.60;54.00;;;;;;5034307;28;20512;-80
2022/05/18 11:12:56;;;;;;;3.00;1.90;;;30.70;55.10;;;;;;5068800;28;20241;-80
2022/05/18 11:15:37;;;;;;;3.70;1.90;;;30.80;54.40;;;;;;5050772;28;20473;-80
2022/05/18 11:18:24;;;;;;;1.73;1.57;;;30.80;55.40;;;;;;5068983;28;20401;-80
2022/05/18 11:21:03;;;;;;;3.30;2.20;;;30.80;53.80;;;;;;5068915;28;20454;-80
2022/05/18 11:23:49;;;;;;;3.43;1.83;;;30.70;53.50;;;;;;5068552;28;20851;-80
2022/05/18 11:26:29;;;;;;;3.23;2.03;;;30.80;53.50;;;;;;5071731;28;20564;-81
2022/05/18 11:29:20;;;;;;;2.00;1.73;;;30.90;54.00;;;;;;5072865;28;20397;-81
2022/05/18 11:31:59;;;;;;;3.37;1.67;;;30.60;54.00;;;;;;5072198;28;20482;-80
2022/05/18 11:35:07;;;;;;;2.23;1.73;;;30.80;54.40;;;;;;5072543;28;20867;-80
2022/05/18 11:38:04;;;;;;;2.40;1.60;;;31.10;55.00;;;;;;5072812;28;20410;-80
2022/05/18 11:40:49;;;;;;;5.23;1.60;;;31.30;55.00;;;;;;5072954;28;21118;-81
2022/05/18 11:43:29;;;;;;;4.53;1.97;;;31.20;53.00;;;;;;5072527;28;20453;-80
2022/05/18 11:46:16;;;;;;;3.30;1.97;;;31.60;56.10;;;;;;5054444;28;20478;-81
2022/05/18 11:48:56;;;;;;;10.13;2.37;;;30.90;53.20;;;;;;5073093;28;20952;-81
2022/05/18 11:52:00;;;;;;;3.77;2.03;;;31.10;57.10;;;;;;5072358;28;20465;-80
2022/05/18 11:54:32;;;;;;;2.30;1.97;;;31.10;53.80;;;;;;5071859;28;20473;-80
2022/05/18 11:57:20;;;;;;;2.27;1.70;;;31.00;53.60;;;;;;5054629;28;20525;-80
2022/05/18 11:59:57;;;;;;;4.97;1.93;;;31.30;55.10;;;;;;5072421;28;20421;-80
2022/05/18 12:02:51;;;;;;;2.00;1.90;;;31.40;54.30;;;;;;5072723;28;20437;-80
2022/05/18 12:05:37;;;;;;;7.67;1.97;;;31.20;52.00;;;;;;5053926;28;20433;-80
2022/05/18 12:08:25;;;;;;;2.13;1.70;;;31.40;53.90;;;;;;5054001;28;20429;-80
2022/05/18 12:11:13;;;;;;;6.20;2.10;;;30.90;53.40;;;;;;5054339;28;20429;-80
2022/05/18 12:13:54;;;;;;;2.17;1.90;;;31.30;55.10;;;;;;5072069;28;20524;-80
2022/05/18 12:16:56;;;;;;;2.33;2.00;;;30.90;52.30;;;;;;5071804;28;20792;-80
2022/05/18 12:19:38;;;;;;;4.60;1.77;;;31.00;53.00;;;;;;5055020;28;20429;-80
2022/05/18 12:22:10;;;;;;;2.03;1.83;;;31.20;53.10;;;;;;5071220;28;20445;-80
2022/05/18 12:24:39;;;;;;;6.03;1.93;;;31.30;53.70;;;;;;5036664;28;20717;-81
2022/05/18 12:27:06;;;;;;;2.13;2.03;;;30.80;51.90;;;;;;5071426;28;20508;-81
2022/05/18 12:29:32;;;;;;;3.83;1.80;;;31.20;53.20;;;;;;5052963;28;20942;-80
2022/05/18 12:31:59;;;;;;;4.67;1.70;;;31.20;55.00;;;;;;5070961;28;20464;-80
2022/05/18 12:34:34;;;;;;;1.70;1.60;;;31.10;54.50;;;;;;5052861;28;20539;-80
2022/05/18 12:37:15;;;;;;;4.97;1.90;;;31.20;52.00;;;;;;5070333;28;20833;-81
2022/05/18 12:39:45;;;;;;;4.73;1.70;;;30.80;51.90;;;;;;5070803;28;20420;-81
2022/05/18 12:42:16;;;;;;;3.30;1.90;;;30.80;52.10;;;;;;5070268;28;20440;-81
2022/05/18 12:44:44;;;;;;;4.40;2.53;;;31.20;54.80;;;;;;5071615;28;20508;-81
2022/05/18 12:47:24;;;;;;;3.30;1.97;;;31.40;55.30;;;;;;5053772;28;20933;-81
2022/05/18 12:50:00;;;;;;;2.23;2.10;;;31.30;53.50;;;;;;5054443;28;20488;-81
2022/05/18 12:52:52;;;;;;;2.30;2.20;;;31.50;52.20;;;;;;5072475;28;20441;-81
2022/05/18 12:55:32;;;;;;;3.93;2.23;;;31.60;52.90;;;;;;5072213;28;20552;-81
2022/05/18 12:58:10;;;;;;;3.63;1.70;;;31.60;53.50;;;;;;5054448;28;21059;-81
2022/05/18 13:00:52;;;;;;;2.70;2.00;;;31.10;51.70;;;;;;5054294;28;21307;-81
2022/05/18 13:03:17;;;;;;;5.80;2.33;;;31.20;54.40;;;;;;5071989;28;20917;-81
2022/05/18 13:05:54;;;;;;;2.57;2.37;;;31.20;53.30;;;;;;5072038;28;20430;-81
2022/05/18 13:08:20;;;;;;;3.13;2.50;;;31.20;53.80;;;;;;5071808;28;20231;-81
2022/05/18 13:11:07;;;;;;;2.83;2.00;;;31.20;53.40;;;;;;5053113;28;20921;-81
2022/05/18 13:14:02;;;;;;;1.90;1.70;;;31.40;54.10;;;;;;5072220;28;20210;-81
2022/05/18 13:16:37;;;;;;;5.73;2.70;;;31.20;55.60;;;;;;5027386;28;20433;-80
2022/05/18 13:19:14;;;;;;;2.20;2.00;;;31.10;54.10;;;;;;5053610;28;20482;-81
2022/05/18 13:21:45;;;;;;;2.47;2.07;;;31.00;54.50;;;;;;5073286;28;20487;-80
2022/05/18 13:24:17;;;;;;;4.07;2.40;;;31.20;55.20;;;;;;5053744;28;20448;-81